Time;durP1;ratioP1;P1;durP2;ratioP2;P2;SDS_P1;SDS_P2;PMS_P1;PMS_P2;Temp;Humidity;BMP_temperature;BMP_pressure;BME280_temperature;BME280_humidity;BME280_pressure;Samples;Min_cycle;Max_cycle;Signal;HPM_P1;HPM_P2
2021/08/01 00:00:28;;;;;;;0.30;0.20;;;17.80;71.30;;;;;;5072569;28;20067;-75
2021/08/01 00:02:56;;;;;;;0.20;0.20;;;17.80;71.30;;;;;;5058069;28;20029;-76
2021/08/01 00:05:21;;;;;;;0.35;0.20;;;17.70;71.40;;;;;;5058246;28;20050;-75
2021/08/01 00:07:47;;;;;;;0.43;0.30;;;17.60;71.90;;;;;;5058162;28;20539;-75
2021/08/01 00:10:13;;;;;;;0.10;0.10;;;17.70;71.40;;;;;;5058134;28;20025;-76
2021/08/01 00:12:40;;;;;;;0.20;0.20;;;17.70;71.60;;;;;;5058105;28;20021;-76
2021/08/01 00:15:06;;;;;;;0.20;0.20;;;17.70;71.80;;;;;;5057945;28;20032;-76
2021/08/01 00:17:32;;;;;;;0.28;0.20;;;17.70;71.40;;;;;;5073324;28;20024;-76
2021/08/01 00:19:58;;;;;;;0.20;0.20;;;17.70;71.60;;;;;;5057932;28;20029;-75
2021/08/01 00:22:24;;;;;;;0.20;0.20;;;17.60;71.60;;;;;;5057776;28;20021;-75
2021/08/01 00:24:50;;;;;;;0.40;0.30;;;17.70;71.30;;;;;;5072028;28;20083;-76
2021/08/01 00:27:16;;;;;;;0.20;0.20;;;17.70;71.20;;;;;;5073070;28;20036;-75
2021/08/01 00:29:42;;;;;;;0.80;0.30;;;17.60;71.90;;;;;;5057899;28;20029;-76
2021/08/01 00:32:08;;;;;;;0.28;0.20;;;17.50;72.30;;;;;;5057606;28;20036;-76
2021/08/01 00:34:34;;;;;;;0.25;0.20;;;17.50;72.00;;;;;;5057554;28;20032;-76
2021/08/01 00:37:00;;;;;;;0.70;0.20;;;17.50;71.90;;;;;;5057604;28;20033;-76
2021/08/01 00:39:25;;;;;;;0.10;0.10;;;17.60;71.50;;;;;;5057075;28;20036;-75
2021/08/01 00:41:51;;;;;;;0.20;0.15;;;17.50;71.60;;;;;;5073693;28;20033;-76
2021/08/01 00:44:17;;;;;;;0.20;0.20;;;17.60;71.60;;;;;;5077491;28;20103;-76
2021/08/01 00:46:45;;;;;;;0.20;0.20;;;17.50;71.60;;;;;;5076045;28;20028;-76
2021/08/01 00:49:11;;;;;;;0.20;0.20;;;17.40;72.10;;;;;;5057428;28;20018;-76
2021/08/01 00:51:37;;;;;;;0.32;0.20;;;17.40;72.20;;;;;;5072820;28;20037;-76
2021/08/01 00:54:03;;;;;;;0.10;0.10;;;17.40;72.10;;;;;;5071449;28;20040;-76
2021/08/01 00:56:34;;;;;;;0.30;0.20;;;17.30;72.10;;;;;;5056745;28;20036;-75
2021/08/01 00:58:59;;;;;;;0.40;0.20;;;17.30;72.60;;;;;;5071639;28;20111;-75
2021/08/01 01:01:36;;;;;;;0.30;0.20;;;17.30;72.80;;;;;;5057068;28;20091;-76
2021/08/01 01:04:30;;;;;;;0.25;0.20;;;17.20;72.90;;;;;;5055525;28;20029;-75
2021/08/01 01:07:06;;;;;;;0.20;0.20;;;17.20;73.00;;;;;;5057096;28;20025;-76
2021/08/01 01:10:04;;;;;;;0.20;0.20;;;17.20;72.60;;;;;;5057159;28;20013;-75
2021/08/01 01:12:54;;;;;;;0.22;0.20;;;17.20;72.90;;;;;;5038531;28;20037;-75
2021/08/01 01:15:23;;;;;;;0.20;0.20;;;17.30;72.60;;;;;;5056499;28;20037;-76
2021/08/01 01:17:52;;;;;;;0.20;0.20;;;17.30;73.00;;;;;;5056631;28;20146;-75
2021/08/01 01:20:37;;;;;;;0.30;0.20;;;17.20;72.80;;;;;;5057079;28;20127;-76
2021/08/01 01:23:25;;;;;;;0.30;0.20;;;17.20;73.40;;;;;;5071956;28;20071;-76
2021/08/01 01:26:02;;;;;;;0.15;0.15;;;17.30;73.50;;;;;;5060511;28;20444;-75
2021/08/01 01:28:47;;;;;;;0.20;0.20;;;17.30;74.10;;;;;;5069394;28;20035;-75
2021/08/01 01:31:16;;;;;;;0.40;0.30;;;17.30;73.60;;;;;;5075300;28;20031;-75
2021/08/01 01:34:08;;;;;;;0.25;0.20;;;17.30;74.40;;;;;;5073607;28;20036;-76
2021/08/01 01:36:35;;;;;;;0.28;0.20;;;17.20;73.80;;;;;;5056433;28;20111;-76
2021/08/01 01:39:03;;;;;;;0.50;0.22;;;17.30;73.60;;;;;;5055368;28;20067;-76
2021/08/01 01:41:30;;;;;;;0.15;0.15;;;17.30;73.50;;;;;;5057207;28;20052;-76
2021/08/01 01:43:56;;;;;;;0.20;0.20;;;17.20;73.30;;;;;;5056420;28;20032;-76
2021/08/01 01:46:23;;;;;;;0.20;0.20;;;17.20;73.90;;;;;;5056256;28;20029;-76
2021/08/01 01:48:49;;;;;;;0.30;0.20;;;17.20;73.10;;;;;;5056445;28;20029;-76
2021/08/01 01:51:15;;;;;;;0.20;0.20;;;17.00;74.10;;;;;;5056120;28;20418;-76
2021/08/01 01:53:42;;;;;;;0.20;0.20;;;17.00;73.60;;;;;;5056514;28;20487;-76
2021/08/01 01:56:09;;;;;;;0.32;0.30;;;17.00;74.20;;;;;;5056065;28;20077;-76
2021/08/01 01:58:36;;;;;;;0.30;0.20;;;17.00;74.10;;;;;;5054801;28;20025;-75
2021/08/01 02:01:02;;;;;;;0.38;0.28;;;17.00;74.40;;;;;;5054439;28;20477;-76
2021/08/01 02:03:28;;;;;;;0.30;0.20;;;17.00;74.80;;;;;;5054641;28;20060;-76
2021/08/01 02:05:54;;;;;;;0.40;0.30;;;17.00;74.60;;;;;;5055798;28;20032;-76
2021/08/01 02:08:20;;;;;;;0.30;0.20;;;17.10;74.60;;;;;;5055640;28;20028;-75
2021/08/01 02:10:56;;;;;;;0.20;0.20;;;17.10;74.40;;;;;;5060184;28;20074;-75
2021/08/01 02:13:30;;;;;;;0.20;0.20;;;17.00;74.90;;;;;;5075782;28;20376;-76
2021/08/01 02:16:06;;;;;;;0.40;0.20;;;17.00;75.30;;;;;;5075780;28;20051;-76
2021/08/01 02:18:38;;;;;;;0.20;0.20;;;17.00;75.50;;;;;;5074246;28;20028;-76
2021/08/01 02:21:05;;;;;;;0.20;0.20;;;17.00;75.40;;;;;;5070003;28;20513;-76
2021/08/01 02:23:36;;;;;;;0.30;0.20;;;17.00;75.10;;;;;;5054315;28;20029;-76
2021/08/01 02:26:03;;;;;;;0.20;0.20;;;17.00;75.10;;;;;;5055754;28;20104;-76
2021/08/01 02:28:30;;;;;;;0.22;0.20;;;17.00;75.10;;;;;;5066461;28;20502;-76
2021/08/01 02:30:57;;;;;;;0.20;0.20;;;16.90;75.70;;;;;;5074051;28;20025;-76
2021/08/01 02:33:27;;;;;;;0.20;0.20;;;16.90;75.30;;;;;;5054417;28;20489;-76
2021/08/01 02:36:05;;;;;;;0.25;0.20;;;16.90;75.20;;;;;;5055372;28;20099;-76
2021/08/01 02:38:32;;;;;;;0.20;0.20;;;16.90;75.10;;;;;;5055569;28;20079;-76
2021/08/01 02:41:04;;;;;;;0.30;0.20;;;16.90;74.90;;;;;;5062735;28;20139;-76
2021/08/01 02:43:31;;;;;;;0.40;0.30;;;17.00;74.60;;;;;;5073813;28;20050;-76
2021/08/01 02:45:58;;;;;;;0.35;0.30;;;17.00;74.70;;;;;;5070705;28;20044;-76
2021/08/01 02:48:26;;;;;;;0.20;0.20;;;17.00;75.30;;;;;;5054077;28;20029;-76
2021/08/01 02:50:57;;;;;;;0.30;0.20;;;16.90;75.20;;;;;;5054057;28;20094;-76
2021/08/01 02:53:23;;;;;;;0.20;0.20;;;17.00;75.10;;;;;;5060456;28;20028;-76
2021/08/01 02:56:04;;;;;;;;;;;;;;;;;;;;;
2021/08/01 02:58:31;;;;;;;0.40;0.20;;;17.10;75.30;;;;;;5075485;28;20039;-76
2021/08/01 03:00:57;;;;;;;0.35;0.20;;;17.00;75.00;;;;;;5054128;28;20029;-76
2021/08/01 03:03:24;;;;;;;0.43;0.22;;;17.00;74.80;;;;;;5055147;28;20025;-76
2021/08/01 03:05:50;;;;;;;0.17;0.17;;;17.00;74.90;;;;;;5054111;28;20017;-76
2021/08/01 03:08:16;;;;;;;0.20;0.20;;;17.00;75.20;;;;;;5055009;28;20025;-76
2021/08/01 03:10:46;;;;;;;0.47;0.30;;;17.00;74.90;;;;;;5053976;28;20021;-76
2021/08/01 03:13:12;;;;;;;0.43;0.30;;;17.10;75.20;;;;;;5053935;28;20505;-76
2021/08/01 03:15:38;;;;;;;0.32;0.30;;;17.10;75.10;;;;;;5072442;28;20375;-76
2021/08/01 03:18:04;;;;;;;0.20;0.20;;;17.20;74.60;;;;;;5075084;28;20502;-76
2021/08/01 03:20:30;;;;;;;0.38;0.20;;;17.20;74.70;;;;;;5072316;28;20029;-76
2021/08/01 03:22:56;;;;;;;0.20;0.20;;;17.30;75.00;;;;;;5057548;28;20029;-76
2021/08/01 03:25:22;;;;;;;0.50;0.30;;;17.20;75.60;;;;;;5057534;28;20560;-76
2021/08/01 03:27:47;;;;;;;0.20;0.17;;;17.20;76.10;;;;;;5057976;28;20025;-76
2021/08/01 03:30:15;;;;;;;0.30;0.20;;;17.20;76.10;;;;;;5057478;28;20025;-76
2021/08/01 03:32:41;;;;;;;0.22;0.20;;;17.20;75.60;;;;;;5059018;28;20064;-76
2021/08/01 03:35:07;;;;;;;0.22;0.22;;;17.20;75.30;;;;;;5057301;28;20033;-76
2021/08/01 03:37:33;;;;;;;0.20;0.20;;;17.20;75.20;;;;;;5057531;28;20045;-76
2021/08/01 03:39:58;;;;;;;0.28;0.20;;;17.30;75.20;;;;;;5057768;28;20047;-76
2021/08/01 03:42:24;;;;;;;0.30;0.20;;;17.30;75.50;;;;;;5077591;28;20036;-76
2021/08/01 03:44:50;;;;;;;0.20;0.20;;;17.20;76.10;;;;;;5066813;28;20025;-76
2021/08/01 03:47:18;;;;;;;0.20;0.20;;;17.10;75.80;;;;;;5057293;28;20120;-75
2021/08/01 03:49:44;;;;;;;0.30;0.20;;;17.10;75.10;;;;;;5058418;28;20017;-76
2021/08/01 03:52:11;;;;;;;0.28;0.20;;;17.10;75.20;;;;;;5057411;28;20706;-76
2021/08/01 03:54:37;;;;;;;0.20;0.20;;;17.00;75.00;;;;;;5070546;28;20076;-75
2021/08/01 03:57:02;;;;;;;0.43;0.22;;;17.00;75.00;;;;;;5078391;28;20099;-76
2021/08/01 03:59:32;;;;;;;0.30;0.20;;;16.90;75.20;;;;;;5077125;28;20028;-76
2021/08/01 04:01:58;;;;;;;0.30;0.20;;;16.80;75.30;;;;;;5061197;28;20111;-76
2021/08/01 04:04:26;;;;;;;0.30;0.20;;;16.70;76.00;;;;;;5056959;28;20115;-76
2021/08/01 04:06:52;;;;;;;0.43;0.30;;;16.70;75.50;;;;;;5057267;28;20029;-76
2021/08/01 04:09:17;;;;;;;0.20;0.20;;;16.70;75.90;;;;;;5058361;28;20013;-76
2021/08/01 04:11:44;;;;;;;0.40;0.30;;;16.60;75.80;;;;;;5058018;28;20035;-76
2021/08/01 04:14:10;;;;;;;0.30;0.20;;;16.50;76.70;;;;;;5058196;28;20090;-76
2021/08/01 04:16:37;;;;;;;0.20;0.20;;;16.50;76.80;;;;;;5073176;28;20472;-76
2021/08/01 04:19:10;;;;;;;0.40;0.30;;;16.50;76.70;;;;;;5056886;28;20051;-76
2021/08/01 04:21:45;;;;;;;0.20;0.20;;;16.40;76.70;;;;;;5056531;28;20775;-76
2021/08/01 04:24:11;;;;;;;0.32;0.20;;;16.30;76.30;;;;;;5073299;28;20028;-76
2021/08/01 04:26:37;;;;;;;0.20;0.20;;;16.30;76.70;;;;;;5076515;28;20407;-75
2021/08/01 04:29:04;;;;;;;0.30;0.20;;;16.30;76.70;;;;;;5076649;28;20116;-76
2021/08/01 04:31:30;;;;;;;0.30;0.20;;;16.30;76.80;;;;;;5071268;28;20145;-78
2021/08/01 04:33:56;;;;;;;0.30;0.20;;;16.30;77.10;;;;;;5059040;28;20124;-77
2021/08/01 04:36:21;;;;;;;0.20;0.20;;;16.20;76.70;;;;;;5063793;28;20025;-75
2021/08/01 04:38:52;;;;;;;0.40;0.20;;;16.20;76.50;;;;;;5068359;28;20021;-77
2021/08/01 04:41:18;;;;;;;0.20;0.20;;;16.10;77.30;;;;;;5065542;28;20076;-78
2021/08/01 04:43:43;;;;;;;0.30;0.30;;;16.10;76.90;;;;;;5062707;28;20055;-78
2021/08/01 04:46:09;;;;;;;0.20;0.20;;;16.10;77.00;;;;;;5072929;28;21948;-78
2021/08/01 04:48:36;;;;;;;0.30;0.30;;;16.10;76.80;;;;;;5064254;28;20483;-77
2021/08/01 04:51:01;;;;;;;0.20;0.20;;;16.20;76.60;;;;;;5067600;28;20041;-77
2021/08/01 04:53:27;;;;;;;0.20;0.20;;;16.20;76.70;;;;;;5072205;28;20487;-76
2021/08/01 04:55:53;;;;;;;0.20;0.20;;;16.20;76.70;;;;;;5064809;28;20021;-75
2021/08/01 04:58:18;;;;;;;0.20;0.20;;;16.20;76.60;;;;;;5065093;28;20031;-77
2021/08/01 05:00:44;;;;;;;0.30;0.20;;;16.20;76.40;;;;;;5069474;28;20031;-76
2021/08/01 05:03:10;;;;;;;0.32;0.30;;;16.10;76.30;;;;;;5068315;28;20029;-78
2021/08/01 05:05:37;;;;;;;0.20;0.20;;;16.10;76.70;;;;;;5065774;28;20021;-80
2021/08/01 05:08:03;;;;;;;0.28;0.20;;;16.00;76.80;;;;;;5056664;28;20017;-77
2021/08/01 05:10:29;;;;;;;0.20;0.20;;;16.00;77.00;;;;;;5057577;28;20033;-77
2021/08/01 05:12:55;;;;;;;0.30;0.30;;;16.00;77.20;;;;;;5055411;28;20036;-77
2021/08/01 05:15:21;;;;;;;0.38;0.30;;;16.00;76.90;;;;;;5057165;28;20033;-76
2021/08/01 05:17:46;;;;;;;0.40;0.30;;;16.00;76.80;;;;;;5056970;28;20067;-75
2021/08/01 05:20:12;;;;;;;0.20;0.20;;;16.00;76.50;;;;;;5074758;28;20032;-77
2021/08/01 05:22:38;;;;;;;0.30;0.22;;;16.00;76.70;;;;;;5076739;28;20027;-75
2021/08/01 05:25:05;;;;;;;0.20;0.20;;;16.00;76.70;;;;;;5067719;28;20457;-75
2021/08/01 05:27:30;;;;;;;0.20;0.20;;;15.90;77.10;;;;;;5056798;28;20043;-76
2021/08/01 05:29:56;;;;;;;0.30;0.20;;;15.90;77.30;;;;;;5071109;28;20501;-76
2021/08/01 05:32:22;;;;;;;0.20;0.20;;;15.90;77.70;;;;;;5056693;28;20028;-76
2021/08/01 05:34:48;;;;;;;0.30;0.30;;;15.80;78.70;;;;;;5055396;28;20047;-76
2021/08/01 05:37:13;;;;;;;0.28;0.20;;;15.70;79.20;;;;;;5056781;28;20502;-76
2021/08/01 05:39:39;;;;;;;0.30;0.30;;;15.70;79.10;;;;;;5056438;28;20487;-76
2021/08/01 05:42:05;;;;;;;0.20;0.20;;;15.80;78.60;;;;;;5074180;28;20052;-77
2021/08/01 05:44:33;;;;;;;0.28;0.28;;;15.80;78.10;;;;;;5056550;28;20079;-76
2021/08/01 05:46:59;;;;;;;0.20;0.20;;;15.90;77.90;;;;;;5055043;28;20043;-76
2021/08/01 05:49:25;;;;;;;0.20;0.20;;;15.90;77.60;;;;;;5055128;28;20380;-76
2021/08/01 05:51:50;;;;;;;0.22;0.20;;;15.90;77.90;;;;;;5073165;28;20127;-76
2021/08/01 05:54:16;;;;;;;0.30;0.30;;;16.00;77.70;;;;;;5067908;28;20484;-76
2021/08/01 05:56:42;;;;;;;0.38;0.20;;;16.00;77.60;;;;;;5056234;28;20033;-76
2021/08/01 05:59:07;;;;;;;0.20;0.20;;;16.10;77.10;;;;;;5056241;28;20036;-76
2021/08/01 06:01:33;;;;;;;0.43;0.30;;;16.10;77.20;;;;;;5059427;28;20044;-76
2021/08/01 06:03:58;;;;;;;0.20;0.20;;;16.20;77.50;;;;;;5054698;28;20036;-76
2021/08/01 06:06:24;;;;;;;0.40;0.30;;;16.20;77.00;;;;;;5056187;28;20021;-76
2021/08/01 06:08:51;;;;;;;0.40;0.28;;;16.20;77.60;;;;;;5054740;28;20573;-76
2021/08/01 06:11:18;;;;;;;0.32;0.30;;;16.30;77.10;;;;;;5054469;28;20029;-76
2021/08/01 06:13:43;;;;;;;0.45;0.30;;;16.20;77.60;;;;;;5054686;28;20503;-76
2021/08/01 06:16:11;;;;;;;0.30;0.20;;;16.30;77.30;;;;;;5054565;28;20029;-76
2021/08/01 06:18:37;;;;;;;0.30;0.30;;;16.30;77.00;;;;;;5070175;28;20503;-76
2021/08/01 06:21:08;;;;;;;0.30;0.20;;;16.30;76.80;;;;;;5055720;28;20032;-76
2021/08/01 06:23:35;;;;;;;0.30;0.30;;;16.40;76.80;;;;;;5071344;28;20127;-76
2021/08/01 06:26:01;;;;;;;0.35;0.25;;;16.50;76.50;;;;;;5055498;28;20053;-76
2021/08/01 06:28:27;;;;;;;0.30;0.25;;;16.50;77.50;;;;;;5055870;28;20166;-76
2021/08/01 06:30:53;;;;;;;0.20;0.20;;;16.60;77.50;;;;;;5055749;28;20103;-76
2021/08/01 06:33:19;;;;;;;0.22;0.20;;;16.60;77.00;;;;;;5054340;28;20033;-76
2021/08/01 06:35:45;;;;;;;0.20;0.20;;;16.60;77.00;;;;;;5054524;28;20834;-76
2021/08/01 06:38:10;;;;;;;0.38;0.20;;;16.80;77.00;;;;;;5054353;28;20415;-76
2021/08/01 06:40:36;;;;;;;0.20;0.20;;;16.90;76.30;;;;;;5059859;28;20049;-76
2021/08/01 06:43:02;;;;;;;0.20;0.20;;;17.00;75.50;;;;;;5059670;28;20065;-76
2021/08/01 06:45:27;;;;;;;0.20;0.20;;;17.10;75.20;;;;;;5055976;28;20025;-76
2021/08/01 06:47:53;;;;;;;0.20;0.20;;;17.10;75.20;;;;;;5074049;28;20124;-76
2021/08/01 06:50:20;;;;;;;0.20;0.20;;;17.20;74.70;;;;;;5062646;28;20079;-76
2021/08/01 06:52:46;;;;;;;0.25;0.20;;;17.20;74.60;;;;;;5055519;28;20024;-76
2021/08/01 06:55:13;;;;;;;0.65;0.30;;;17.10;75.00;;;;;;5053452;28;20388;-77
2021/08/01 06:57:38;;;;;;;0.20;0.20;;;17.00;75.20;;;;;;5054076;28;20135;-76
2021/08/01 07:00:05;;;;;;;0.20;0.20;;;17.00;75.40;;;;;;5055525;28;20056;-76
2021/08/01 07:02:31;;;;;;;0.25;0.20;;;17.00;75.60;;;;;;5069375;28;20058;-76
2021/08/01 07:04:58;;;;;;;0.55;0.30;;;17.00;76.00;;;;;;5075441;28;20017;-76
2021/08/01 07:07:23;;;;;;;0.30;0.20;;;17.00;76.00;;;;;;5075688;28;20025;-76
2021/08/01 07:09:49;;;;;;;0.10;0.10;;;17.20;75.50;;;;;;5074027;28;20096;-76
2021/08/01 07:12:16;;;;;;;0.20;0.20;;;17.30;75.60;;;;;;5064274;28;20055;-76
2021/08/01 07:14:42;;;;;;;0.20;0.20;;;17.30;75.10;;;;;;5071947;28;20021;-76
2021/08/01 07:17:08;;;;;;;0.30;0.30;;;17.60;74.60;;;;;;5075433;28;20024;-76
2021/08/01 07:19:34;;;;;;;0.20;0.20;;;18.20;72.70;;;;;;5075170;28;20049;-76
2021/08/01 07:22:00;;;;;;;0.20;0.20;;;19.60;68.10;;;;;;5060860;28;20041;-77
2021/08/01 07:24:26;;;;;;;0.10;0.10;;;21.20;63.70;;;;;;5055346;28;20498;-77
2021/08/01 07:26:53;;;;;;;0.10;0.10;;;23.30;57.30;;;;;;5054058;28;20057;-77
2021/08/01 07:29:19;;;;;;;0.20;0.10;;;23.00;56.80;;;;;;5064438;28;20035;-77
2021/08/01 07:31:45;;;;;;;0.00;0.00;;;22.20;58.30;;;;;;5075092;28;20028;-77
2021/08/01 07:34:10;;;;;;;0.20;0.20;;;21.40;60.50;;;;;;5075120;28;20047;-77
2021/08/01 07:36:36;;;;;;;0.20;0.20;;;22.70;57.40;;;;;;5068716;28;20029;-77
2021/08/01 07:39:02;;;;;;;0.10;0.10;;;25.90;48.10;;;;;;5053703;28;20501;-78
2021/08/01 07:41:27;;;;;;;0.20;0.10;;;28.00;43.60;;;;;;5066708;28;20052;-78
2021/08/01 07:43:53;;;;;;;0.20;0.10;;;30.00;40.30;;;;;;5068671;28;20071;-77
2021/08/01 07:46:19;;;;;;;0.20;0.10;;;30.80;36.60;;;;;;5054911;28;20100;-76
2021/08/01 07:48:46;;;;;;;0.00;0.00;;;31.60;35.00;;;;;;5069945;28;20033;-76
2021/08/01 07:51:11;;;;;;;0.10;0.00;;;32.90;33.50;;;;;;5074867;28;20048;-76
2021/08/01 07:53:37;;;;;;;0.10;0.10;;;30.60;36.80;;;;;;5074915;28;20024;-76
2021/08/01 07:56:03;;;;;;;0.00;0.00;;;31.30;35.30;;;;;;5058630;28;20029;-76
2021/08/01 07:58:32;;;;;;;0.00;0.00;;;32.40;34.40;;;;;;5054764;28;20108;-76
2021/08/01 08:00:57;;;;;;;0.05;0.00;;;32.00;33.80;;;;;;5054788;28;20569;-76
2021/08/01 08:03:23;;;;;;;0.10;0.10;;;29.60;38.10;;;;;;5054511;28;20036;-78
2021/08/01 08:05:49;;;;;;;0.20;0.10;;;28.70;40.00;;;;;;5055018;28;20052;-76
2021/08/01 08:08:15;;;;;;;0.10;0.10;;;30.80;37.60;;;;;;5057333;28;20036;-76
2021/08/01 08:10:40;;;;;;;0.00;0.00;;;32.20;34.00;;;;;;5058526;28;20096;-76
2021/08/01 08:13:06;;;;;;;0.05;0.05;;;32.50;33.70;;;;;;5058047;28;20071;-76
2021/08/01 08:15:33;;;;;;;0.00;0.00;;;33.10;32.10;;;;;;5058132;28;20033;-77
2021/08/01 08:17:59;;;;;;;0.10;0.10;;;33.00;33.20;;;;;;5058009;28;20064;-76
2021/08/01 08:20:24;;;;;;;0.10;0.10;;;34.60;29.50;;;;;;5058082;28;20471;-76
2021/08/01 08:22:51;;;;;;;0.00;0.00;;;35.00;30.80;;;;;;5056636;28;20119;-77
2021/08/01 08:25:17;;;;;;;0.00;0.00;;;32.50;32.90;;;;;;5072288;28;20021;-78
2021/08/01 08:27:42;;;;;;;0.10;0.10;;;31.00;34.30;;;;;;5058020;28;20079;-78
2021/08/01 08:30:09;;;;;;;0.20;0.00;;;31.30;35.40;;;;;;5056652;28;20103;-78
2021/08/01 08:32:34;;;;;;;0.10;0.00;;;29.80;37.40;;;;;;5057605;28;20167;-78
2021/08/01 08:35:01;;;;;;;0.10;0.10;;;30.10;37.20;;;;;;5057934;28;20064;-78
2021/08/01 08:37:27;;;;;;;0.00;0.00;;;30.50;36.70;;;;;;5057803;28;20120;-78
2021/08/01 08:39:52;;;;;;;0.10;0.00;;;28.90;38.10;;;;;;5057684;28;20064;-78
2021/08/01 08:42:18;;;;;;;0.08;0.00;;;27.70;41.30;;;;;;5067297;28;20086;-78
2021/08/01 08:44:44;;;;;;;0.05;0.00;;;26.50;42.80;;;;;;5056266;28;20407;-78
2021/08/01 08:47:16;;;;;;;0.10;0.10;;;27.10;42.80;;;;;;5057807;28;20029;-78
2021/08/01 08:49:50;;;;;;;0.10;0.10;;;28.00;41.70;;;;;;5057433;28;20108;-78
2021/08/01 08:52:17;;;;;;;0.10;0.10;;;30.10;37.20;;;;;;5057593;28;20035;-78
2021/08/01 08:54:49;;;;;;;0.10;0.10;;;31.70;34.80;;;;;;5057477;28;20032;-78
2021/08/01 08:57:29;;;;;;;0.00;0.00;;;31.70;34.40;;;;;;5057488;28;20029;-78
2021/08/01 09:00:14;;;;;;;0.00;0.00;;;32.40;33.40;;;;;;5057277;28;20029;-78
2021/08/01 09:02:40;;;;;;;0.10;0.10;;;30.70;35.40;;;;;;5072761;28;20091;-78
2021/08/01 09:05:07;;;;;;;0.10;0.10;;;32.30;33.60;;;;;;5057372;28;20021;-76
2021/08/01 09:07:38;;;;;;;0.10;0.10;;;33.10;32.60;;;;;;5072516;28;20028;-76
2021/08/01 09:10:05;;;;;;;0.10;0.10;;;34.10;30.70;;;;;;5055811;28;20025;-77
2021/08/01 09:12:43;;;;;;;0.22;0.10;;;34.30;30.40;;;;;;5055809;28;20039;-76
2021/08/01 09:15:24;;;;;;;0.00;0.00;;;34.60;28.90;;;;;;5056976;28;20059;-77
2021/08/01 09:17:53;;;;;;;0.00;0.00;;;33.30;31.50;;;;;;5071922;28;20065;-77
2021/08/01 09:20:19;;;;;;;0.10;0.10;;;32.10;33.00;;;;;;5055640;28;20059;-78
2021/08/01 09:22:59;;;;;;;0.10;0.10;;;33.00;31.80;;;;;;5056618;28;20025;-78
2021/08/01 09:25:28;;;;;;;0.10;0.10;;;33.20;31.00;;;;;;5055608;28;20021;-78
2021/08/01 09:28:07;;;;;;;0.10;0.10;;;33.70;31.30;;;;;;5056827;28;20103;-78
2021/08/01 09:30:57;;;;;;;0.00;0.00;;;34.40;29.10;;;;;;5056859;28;20483;-78
2021/08/01 09:33:31;;;;;;;0.10;0.10;;;32.10;32.60;;;;;;5055867;28;20043;-78
2021/08/01 09:36:17;;;;;;;0.00;0.00;;;31.30;33.90;;;;;;5056730;28;20036;-78
2021/08/01 09:38:55;;;;;;;0.10;0.00;;;30.30;35.70;;;;;;5056665;28;20056;-78
2021/08/01 09:41:36;;;;;;;0.03;0.03;;;31.40;34.40;;;;;;5068165;28;20139;-78
2021/08/01 09:44:04;;;;;;;0.00;0.00;;;30.60;35.70;;;;;;5076525;28;20076;-78
2021/08/01 09:46:45;;;;;;;0.00;0.00;;;30.30;36.40;;;;;;5074555;28;20119;-78
2021/08/01 09:49:17;;;;;;;0.10;0.10;;;28.60;38.00;;;;;;5075015;28;20259;-78
2021/08/01 09:51:44;;;;;;;0.17;0.10;;;29.30;38.40;;;;;;5072210;28;20111;-78
2021/08/01 09:54:11;;;;;;;0.00;0.00;;;29.40;38.30;;;;;;5056298;28;20025;-78
2021/08/01 09:56:38;;;;;;;0.10;0.10;;;30.90;34.70;;;;;;5056582;28;20028;-78
2021/08/01 09:59:17;;;;;;;0.05;0.05;;;32.20;34.50;;;;;;5054933;28;20094;-78
2021/08/01 10:01:50;;;;;;;0.10;0.10;;;33.20;33.00;;;;;;5056039;28;20037;-78
2021/08/01 10:04:27;;;;;;;0.10;0.10;;;33.40;31.70;;;;;;5056181;28;20499;-78
2021/08/01 10:07:11;;;;;;;0.65;0.65;;;33.70;32.20;;;;;;5056097;28;20060;-77
2021/08/01 10:09:39;;;;;;;0.10;0.10;;;32.40;32.90;;;;;;5056001;28;20032;-78
2021/08/01 10:12:07;;;;;;;0.10;0.10;;;32.40;33.10;;;;;;5056889;28;20025;-78
2021/08/01 10:14:34;;;;;;;0.00;0.00;;;33.20;31.10;;;;;;5075964;28;20033;-78
2021/08/01 10:17:00;;;;;;;0.10;0.10;;;32.20;32.00;;;;;;5074861;28;20086;-78
2021/08/01 10:19:26;;;;;;;0.00;0.00;;;32.30;32.90;;;;;;5061868;28;20025;-78
2021/08/01 10:22:00;;;;;;;0.10;0.10;;;32.50;31.40;;;;;;5055543;28;20087;-78
2021/08/01 10:24:44;;;;;;;0.10;0.10;;;33.10;32.00;;;;;;5055746;28;20021;-78
2021/08/01 10:27:11;;;;;;;0.00;0.00;;;32.90;32.30;;;;;;5054689;28;20095;-77
2021/08/01 10:29:44;;;;;;;0.00;0.00;;;32.40;32.40;;;;;;5055064;28;20021;-78
2021/08/01 10:32:12;;;;;;;0.10;0.00;;;32.30;31.90;;;;;;5068394;28;20021;-78
2021/08/01 10:35:03;;;;;;;0.00;0.00;;;31.80;32.00;;;;;;5074565;28;20029;-78
2021/08/01 10:37:39;;;;;;;0.00;0.00;;;31.80;32.50;;;;;;5063132;28;20025;-78
2021/08/01 10:40:07;;;;;;;0.00;0.00;;;30.90;34.00;;;;;;5057021;28;20036;-77
2021/08/01 10:42:37;;;;;;;0.00;0.00;;;30.50;35.30;;;;;;5075560;28;20025;-78
2021/08/01 10:45:04;;;;;;;0.00;0.00;;;29.70;36.30;;;;;;5075679;28;20266;-78
2021/08/01 10:47:32;;;;;;;0.00;0.00;;;29.00;37.80;;;;;;5060162;28;20067;-78
2021/08/01 10:50:01;;;;;;;0.10;0.00;;;28.60;38.50;;;;;;5055517;28;20048;-78
2021/08/01 10:52:33;;;;;;;0.00;0.00;;;28.60;40.30;;;;;;5055417;28;20029;-78
2021/08/01 10:55:06;;;;;;;0.00;0.00;;;28.90;39.90;;;;;;5055339;28;20068;-78
2021/08/01 10:57:33;;;;;;;0.00;0.00;;;28.90;36.20;;;;;;5055192;28;20576;-78
2021/08/01 11:00:02;;;;;;;0.00;0.00;;;28.80;37.90;;;;;;5055287;28;20037;-78
2021/08/01 11:02:28;;;;;;;;;;;28.90;37.80;;;;;;5055568;28;20096;-78
2021/08/01 11:04:54;;;;;;;0.03;0.00;;;28.50;38.20;;;;;;5055330;28;19940;-78
2021/08/01 11:07:26;;;;;;;0.00;0.00;;;27.70;39.30;;;;;;5055319;28;20017;-78
2021/08/01 11:10:10;;;;;;;0.00;0.00;;;27.70;40.40;;;;;;5055144;28;20056;-78
2021/08/01 11:12:37;;;;;;;0.00;0.00;;;27.80;41.20;;;;;;5055139;28;20560;-78
2021/08/01 11:15:11;;;;;;;0.00;0.00;;;28.10;39.70;;;;;;5053890;28;20415;-78
2021/08/01 11:17:43;;;;;;;0.10;0.00;;;28.20;39.80;;;;;;5054923;28;20120;-78
2021/08/01 11:20:23;;;;;;;0.00;0.00;;;28.30;39.80;;;;;;5075100;28;20028;-78
2021/08/01 11:22:56;;;;;;;0.10;0.10;;;28.20;39.10;;;;;;5065211;28;20468;-78
2021/08/01 11:25:32;;;;;;;0.10;0.00;;;27.70;41.00;;;;;;5053854;28;20557;-78
2021/08/01 11:28:10;;;;;;;0.00;0.00;;;27.60;41.80;;;;;;5055009;28;20472;-78
2021/08/01 11:30:51;;;;;;;0.00;0.00;;;27.80;42.10;;;;;;5055282;28;20028;-78
2021/08/01 11:33:39;;;;;;;0.00;0.00;;;27.80;42.70;;;;;;5054937;28;20033;-78
2021/08/01 11:36:15;;;;;;;0.15;0.10;;;27.80;41.20;;;;;;5055162;28;20104;-78
2021/08/01 11:38:53;;;;;;;0.00;0.00;;;27.30;41.60;;;;;;5054954;28;20025;-78
2021/08/01 11:44:23;;;;;;;0.00;0.00;;;27.40;41.70;;;;;;5078291;28;20040;-77
2021/08/01 11:46:50;;;;;;;0.00;0.00;;;27.80;40.70;;;;;;5057324;28;20040;-78
2021/08/01 11:49:24;;;;;;;0.10;0.10;;;27.60;41.40;;;;;;5058701;28;20361;-77
2021/08/01 11:51:52;;;;;;;0.00;0.00;;;27.60;41.30;;;;;;5058430;28;20530;-78
2021/08/01 11:54:18;;;;;;;0.00;0.00;;;27.70;40.80;;;;;;5058686;28;20029;-78
2021/08/01 11:56:45;;;;;;;0.00;0.00;;;27.80;40.30;;;;;;5058575;28;20407;-78
2021/08/01 11:59:15;;;;;;;0.00;0.00;;;26.80;42.70;;;;;;5058861;28;20029;-78
2021/08/01 12:01:41;;;;;;;0.00;0.00;;;26.70;43.60;;;;;;5058242;28;20061;-78
2021/08/01 12:04:08;;;;;;;0.10;0.03;;;26.80;42.90;;;;;;5058530;28;20032;-78
2021/08/01 12:06:40;;;;;;;0.00;0.00;;;26.40;44.20;;;;;;5058451;28;20430;-78
2021/08/01 12:09:27;;;;;;;0.00;0.00;;;26.40;44.10;;;;;;5058659;28;20044;-78
2021/08/01 12:11:55;;;;;;;0.00;0.00;;;26.80;43.70;;;;;;5058318;28;20028;-78
2021/08/01 12:14:29;;;;;;;0.10;0.03;;;26.60;44.80;;;;;;5058271;28;20025;-78
2021/08/01 12:17:06;;;;;;;0.00;0.00;;;26.80;42.90;;;;;;5057991;28;20111;-78
2021/08/01 12:19:37;;;;;;;0.03;0.00;;;26.80;41.70;;;;;;5058277;28;20025;-78
2021/08/01 12:22:11;;;;;;;0.30;0.30;;;27.20;42.50;;;;;;5073434;28;20025;-78
2021/08/01 12:24:46;;;;;;;0.00;0.00;;;27.40;41.50;;;;;;5058039;28;20040;-78
2021/08/01 12:27:21;;;;;;;0.10;0.00;;;27.60;41.00;;;;;;5056690;28;20112;-78
2021/08/01 12:29:51;;;;;;;0.13;0.10;;;27.20;40.80;;;;;;5075354;28;20025;-78
2021/08/01 12:32:20;;;;;;;0.10;0.10;;;26.70;42.20;;;;;;5077813;28;20100;-78
2021/08/01 12:34:46;;;;;;;0.00;0.00;;;26.60;43.10;;;;;;5075668;28;20040;-78
2021/08/01 12:37:12;;;;;;;0.13;0.10;;;26.30;44.70;;;;;;5057831;28;20493;-78
2021/08/01 12:39:45;;;;;;;0.10;0.10;;;26.20;44.70;;;;;;5057532;28;20024;-78
2021/08/01 12:42:11;;;;;;;0.00;0.00;;;26.30;45.20;;;;;;5076691;28;20036;-78
2021/08/01 12:44:52;;;;;;;0.10;0.10;;;26.50;44.30;;;;;;5077784;28;20104;-78
2021/08/01 12:47:18;;;;;;;0.00;0.00;;;26.30;44.20;;;;;;5076338;28;20509;-77
2021/08/01 12:49:45;;;;;;;0.00;0.00;;;26.50;43.30;;;;;;5057701;28;20025;-77
2021/08/01 12:52:10;;;;;;;0.22;0.10;;;26.70;44.20;;;;;;5057156;28;20029;-77
2021/08/01 12:54:37;;;;;;;0.00;0.00;;;27.00;42.80;;;;;;5071612;28;20111;-78
2021/08/01 12:57:07;;;;;;;0.10;0.10;;;27.10;41.90;;;;;;5069762;28;20047;-78
2021/08/01 12:59:35;;;;;;;0.00;0.00;;;27.50;41.60;;;;;;5069247;28;20024;-78